createdAt,value
2023-05-12T00:02:08.718Z,51.73
2023-05-12T00:05:11.562Z,52.16
2023-05-12T00:08:14.454Z,52.06
2023-05-12T00:11:17.314Z,52.32
2023-05-12T00:14:20.699Z,52.28
2023-05-12T00:17:23.560Z,52.83
2023-05-12T00:20:26.804Z,52.53
2023-05-12T00:23:29.604Z,52.60
2023-05-12T00:26:32.369Z,52.82
2023-05-12T00:29:35.346Z,53.11
2023-05-12T00:32:38.157Z,52.83
2023-05-12T00:35:40.999Z,53.24
2023-05-12T00:38:43.809Z,53.54
2023-05-12T00:41:47.895Z,53.59
2023-05-12T00:44:50.613Z,53.77
2023-05-12T00:47:53.681Z,53.92
2023-05-12T00:50:57.764Z,54.05
2023-05-12T00:54:00.664Z,53.76
2023-05-12T00:57:04.147Z,54.11
2023-05-12T01:00:09.052Z,54.27
2023-05-12T01:03:12.666Z,54.36
2023-05-12T01:06:44.791Z,54.24
2023-05-12T01:09:47.940Z,54.71
2023-05-12T01:12:51.178Z,54.59
2023-05-12T01:15:56.795Z,54.61
2023-05-12T01:19:03.661Z,54.77
2023-05-12T01:22:07.830Z,54.62
2023-05-12T01:25:12.158Z,54.85
2023-05-12T01:28:17.279Z,55.18
2023-05-12T01:31:21.333Z,55.20
2023-05-12T01:34:24.261Z,55.34
2023-05-12T01:37:27.503Z,55.17
2023-05-12T01:40:30.891Z,55.51
2023-05-12T01:43:33.907Z,55.42
2023-05-12T01:46:37.131Z,55.52
2023-05-12T01:49:40.657Z,55.66
2023-05-12T01:52:47.797Z,55.95
2023-05-12T01:55:52.761Z,56.15
2023-05-12T01:58:56.769Z,56.16
2023-05-12T02:01:59.702Z,56.37
2023-05-12T02:05:06.450Z,56.11
2023-05-12T02:08:09.307Z,56.43
2023-05-12T02:11:12.209Z,56.62
2023-05-12T02:14:14.921Z,56.54
2023-05-12T02:17:18.032Z,56.58
2023-05-12T02:20:22.032Z,56.80
2023-05-12T02:23:25.288Z,56.79
2023-05-12T02:26:28.114Z,56.75
2023-05-12T02:29:30.987Z,56.54
2023-05-12T02:32:34.694Z,56.90
2023-05-12T02:35:37.475Z,56.65
2023-05-12T02:38:40.457Z,56.80
2023-05-12T02:41:44.059Z,56.73
2023-05-12T02:44:47.164Z,56.77
2023-05-12T02:47:50.035Z,57.09
2023-05-12T02:50:52.909Z,57.20
2023-05-12T02:53:55.762Z,57.25
2023-05-12T02:56:59.814Z,57.47
2023-05-12T03:00:06.143Z,57.46
2023-05-12T03:03:10.696Z,57.74
2023-05-12T03:06:13.739Z,57.61
2023-05-12T03:09:16.748Z,57.94
2023-05-12T03:12:19.657Z,57.98
2023-05-12T03:15:22.476Z,58.26
2023-05-12T03:18:25.360Z,58.25
2023-05-12T03:21:28.698Z,58.54
2023-05-12T03:24:32.497Z,58.08
2023-05-12T03:27:36.088Z,58.13
2023-05-12T03:30:39.305Z,58.13
2023-05-12T03:33:42.144Z,58.15
2023-05-12T03:36:45.923Z,57.89
2023-05-12T03:39:49.215Z,57.48
2023-05-12T03:42:52.230Z,57.47
2023-05-12T03:45:54.998Z,56.92
2023-05-12T03:48:58.777Z,56.49
2023-05-12T03:52:01.651Z,56.62
2023-05-12T03:55:06.972Z,56.32
2023-05-12T03:58:09.877Z,55.91
2023-05-12T04:01:13.062Z,55.77
2023-05-12T04:04:16.100Z,55.38
2023-05-12T04:07:18.831Z,55.79
2023-05-12T04:10:22.305Z,54.89
2023-05-12T04:13:26.620Z,54.74
2023-05-12T04:16:29.450Z,54.92
2023-05-12T04:19:34.667Z,54.69
2023-05-12T04:22:37.554Z,54.31
2023-05-12T04:25:40.518Z,54.12
2023-05-12T04:28:43.630Z,53.52
2023-05-12T04:31:46.582Z,53.71
2023-05-12T04:34:51.692Z,53.50
2023-05-12T04:37:54.653Z,53.05
2023-05-12T04:40:59.424Z,52.56
2023-05-12T04:44:02.608Z,52.30
2023-05-12T04:47:05.711Z,52.66
2023-05-12T04:50:10.709Z,52.13
2023-05-12T04:53:13.678Z,52.67
2023-05-12T04:56:17.716Z,53.02
2023-05-12T04:59:21.612Z,52.24
2023-05-12T05:02:26.461Z,52.25
2023-05-12T05:05:29.518Z,52.16
2023-05-12T05:08:32.699Z,52.09
2023-05-12T05:11:35.465Z,52.04
2023-05-12T05:14:39.079Z,52.07
2023-05-12T05:17:43.638Z,52.29
2023-05-12T05:20:54.503Z,52.26
2023-05-12T05:24:00.863Z,51.81
2023-05-12T05:27:04.788Z,51.38
2023-05-12T05:30:11.958Z,51.24
2023-05-12T05:33:16.292Z,50.81
2023-05-12T05:36:19.200Z,50.84
2023-05-12T05:39:22.617Z,50.25
2023-05-12T05:42:25.939Z,50.45
2023-05-12T05:45:31.243Z,49.92
2023-05-12T05:48:36.491Z,50.08
2023-05-12T05:51:39.431Z,49.82
2023-05-12T05:54:42.362Z,49.36
2023-05-12T05:57:45.403Z,49.14
2023-05-12T06:00:48.851Z,49.50
2023-05-12T06:03:52.071Z,49.00
2023-05-12T06:06:55.100Z,48.85
2023-05-12T06:09:57.870Z,49.20
2023-05-12T06:13:00.746Z,48.33
2023-05-12T06:16:03.570Z,48.24
2023-05-12T06:19:06.704Z,47.99
2023-05-12T06:22:09.609Z,47.64
2023-05-12T06:25:12.534Z,47.20
2023-05-12T06:28:15.298Z,46.98
2023-05-12T06:31:18.214Z,47.06
2023-05-12T06:34:23.287Z,47.01
2023-05-12T06:37:26.007Z,45.95
2023-05-12T06:40:28.761Z,46.17
2023-05-12T06:43:31.713Z,46.15
2023-05-12T06:46:34.696Z,45.51
2023-05-12T06:49:38.778Z,45.79
2023-05-12T06:52:41.682Z,44.70
2023-05-12T06:55:46.309Z,43.91
2023-05-12T06:58:50.053Z,43.40
2023-05-12T07:01:52.818Z,43.26
2023-05-12T07:04:55.871Z,43.46
2023-05-12T07:07:59.315Z,44.02
2023-05-12T07:11:02.445Z,42.59
2023-05-12T07:14:05.164Z,43.07
2023-05-12T07:17:07.975Z,42.26
2023-05-12T07:20:11.147Z,42.56
2023-05-12T07:23:13.919Z,42.27
2023-05-12T07:26:17.132Z,41.68
2023-05-12T07:29:19.969Z,42.79
2023-05-12T07:32:22.729Z,41.56
2023-05-12T07:35:25.482Z,39.82
2023-05-12T07:38:28.967Z,40.38
2023-05-12T07:41:33.817Z,40.23
2023-05-12T07:44:37.286Z,40.88
2023-05-12T07:47:40.102Z,40.29
2023-05-12T07:50:42.953Z,39.55
2023-05-12T07:53:45.657Z,40.44
2023-05-12T07:56:48.430Z,39.93
2023-05-12T07:59:51.371Z,39.72
2023-05-12T08:02:54.429Z,38.69
2023-05-12T08:05:57.450Z,37.45
2023-05-12T08:09:00.672Z,37.54
2023-05-12T08:12:03.604Z,38.45
2023-05-12T08:15:07.900Z,37.01
2023-05-12T08:18:10.840Z,38.18
2023-05-12T08:21:13.842Z,38.09
2023-05-12T08:24:16.667Z,37.36
2023-05-12T08:27:19.912Z,37.11
2023-05-12T08:30:22.785Z,37.45
2023-05-12T08:33:25.889Z,38.06
2023-05-12T08:36:28.731Z,38.28
2023-05-12T08:39:32.114Z,36.45
2023-05-12T08:42:44.122Z,35.91
2023-05-12T08:45:47.652Z,35.71
2023-05-12T08:48:53.989Z,35.66
2023-05-12T08:51:59.471Z,35.91
2023-05-12T08:55:04.003Z,36.02
2023-05-12T08:58:09.670Z,34.97
2023-05-12T09:01:14.798Z,35.45
2023-05-12T09:04:18.405Z,34.68
2023-05-12T09:07:24.478Z,33.71
2023-05-12T09:14:03.409Z,34.91
2023-05-12T09:17:06.831Z,35.19
2023-05-12T09:20:20.526Z,35.53
2023-05-12T09:23:32.982Z,35.04
2023-05-12T09:26:47.546Z,33.48
2023-05-12T09:29:59.252Z,33.17
2023-05-12T09:33:10.341Z,33.24
2023-05-12T09:36:23.989Z,33.48
2023-05-12T09:39:27.208Z,33.54
2023-05-12T09:42:31.256Z,33.58
2023-05-12T09:45:39.127Z,34.37
2023-05-12T09:48:42.461Z,34.08
2023-05-12T09:51:45.161Z,33.86
2023-05-12T09:54:48.454Z,33.34
2023-05-12T09:57:52.641Z,33.33
2023-05-12T10:04:10.022Z,34.34
2023-05-12T10:07:14.467Z,34.06
2023-05-12T10:10:25.805Z,33.55
2023-05-12T10:13:28.897Z,33.72
2023-05-12T10:16:33.519Z,33.41
2023-05-12T10:19:36.989Z,33.38
2023-05-12T10:22:41.076Z,33.69
2023-05-12T10:25:44.769Z,32.86
2023-05-12T10:28:48.832Z,34.00
2023-05-12T10:31:51.623Z,33.25
2023-05-12T10:34:55.158Z,33.39
2023-05-12T10:38:02.798Z,33.82
2023-05-12T10:41:06.613Z,33.19
2023-05-12T10:44:12.271Z,32.53
2023-05-12T10:47:15.148Z,32.07
2023-05-12T10:50:28.648Z,32.39
2023-05-12T10:53:48.674Z,33.48
2023-05-12T10:56:59.926Z,32.89
2023-05-12T11:00:04.958Z,31.32
2023-05-12T11:06:19.768Z,31.69
2023-05-12T11:09:22.991Z,31.99
2023-05-12T11:12:31.979Z,32.15
2023-05-12T11:15:34.737Z,31.65
2023-05-12T11:18:37.542Z,32.04
2023-05-12T11:21:40.799Z,32.66
2023-05-12T11:24:43.758Z,31.98
2023-05-12T11:27:51.358Z,31.23
2023-05-12T11:30:55.523Z,31.43
2023-05-12T11:34:13.107Z,30.98
2023-05-12T11:37:17.708Z,31.92
2023-05-12T11:40:22.340Z,32.13
2023-05-12T11:43:25.331Z,31.67
2023-05-12T11:46:29.376Z,31.56
2023-05-12T11:49:32.636Z,30.54
2023-05-12T11:52:35.909Z,30.51
2023-05-12T11:55:56.871Z,31.15
2023-05-12T11:58:59.632Z,30.53
2023-05-12T12:02:03.896Z,30.70
2023-05-12T12:05:18.139Z,31.22
2023-05-12T12:08:21.215Z,31.75
2023-05-12T12:11:27.028Z,32.29
2023-05-12T12:14:31.770Z,31.40
2023-05-12T12:17:34.685Z,31.81
2023-05-12T12:20:37.625Z,30.52
2023-05-12T12:23:50.518Z,30.13
2023-05-12T12:26:54.520Z,30.98
2023-05-12T12:29:57.316Z,31.05
2023-05-12T12:33:00.347Z,30.90
2023-05-12T12:36:03.592Z,30.21
2023-05-12T12:39:06.411Z,30.72
2023-05-12T12:42:09.568Z,31.59
2023-05-12T12:45:13.682Z,30.83
2023-05-12T12:48:16.547Z,31.09
2023-05-12T12:51:19.418Z,31.60
2023-05-12T12:54:22.188Z,32.30
2023-05-12T12:57:26.121Z,31.86
2023-05-12T13:00:29.605Z,30.83
2023-05-12T13:03:32.424Z,31.41
2023-05-12T13:06:36.177Z,30.75
2023-05-12T13:09:39.029Z,30.69
2023-05-12T13:12:42.060Z,30.76
2023-05-12T13:15:44.808Z,30.74
2023-05-12T13:18:47.718Z,30.55
2023-05-12T13:21:50.665Z,30.79
2023-05-12T13:24:53.842Z,31.99
2023-05-12T13:27:56.596Z,30.27
2023-05-12T13:30:59.359Z,29.38
2023-05-12T13:34:02.446Z,30.39
2023-05-12T13:37:05.416Z,30.89
2023-05-12T13:40:09.615Z,30.43
2023-05-12T13:43:13.045Z,30.71
2023-05-12T13:46:15.976Z,30.39
2023-05-12T13:49:19.966Z,30.92
2023-05-12T13:52:22.950Z,30.36
2023-05-12T13:55:26.189Z,30.39
2023-05-12T13:58:29.245Z,30.70
2023-05-12T14:01:32.447Z,30.92
2023-05-12T14:04:35.950Z,31.27
2023-05-12T14:07:38.828Z,30.59
2023-05-12T14:10:41.687Z,30.70
2023-05-12T14:13:44.438Z,30.76
2023-05-12T14:16:47.282Z,30.66
2023-05-12T14:19:50.149Z,30.80
2023-05-12T14:22:52.890Z,30.91
2023-05-12T14:25:55.880Z,30.70
2023-05-12T14:28:58.685Z,30.53
2023-05-12T14:32:03.005Z,30.11
2023-05-12T14:35:08.251Z,30.19
2023-05-12T14:38:11.336Z,30.67
2023-05-12T14:41:14.166Z,30.42
2023-05-12T14:44:16.882Z,30.34
2023-05-12T14:47:19.741Z,30.67
2023-05-12T14:50:23.105Z,30.08
2023-05-12T14:53:26.198Z,29.75
2023-05-12T14:56:29.280Z,29.85
2023-05-12T14:59:32.045Z,29.75
2023-05-12T15:02:34.995Z,29.63
2023-05-12T15:05:53.257Z,29.55
2023-05-12T15:09:00.070Z,30.06
2023-05-12T15:12:04.023Z,30.08
2023-05-12T15:15:08.938Z,31.39
2023-05-12T15:18:11.828Z,31.25
2023-05-12T15:21:15.148Z,30.72
2023-05-12T15:24:17.946Z,31.27
2023-05-12T15:27:20.828Z,30.79
2023-05-12T15:30:23.551Z,30.57
2023-05-12T15:33:26.834Z,30.01
2023-05-12T15:36:29.716Z,30.03
2023-05-12T15:39:32.565Z,29.84
2023-05-12T15:42:35.314Z,29.61
2023-05-12T15:45:38.315Z,29.81
2023-05-12T15:48:41.040Z,29.72
2023-05-12T15:51:43.868Z,30.32
2023-05-12T15:54:46.967Z,30.78
2023-05-12T15:57:50.241Z,30.91
2023-05-12T16:00:56.383Z,29.56
2023-05-12T16:04:00.046Z,30.08
2023-05-12T16:07:03.157Z,30.15
2023-05-12T16:10:06.578Z,30.43
2023-05-12T16:13:09.718Z,30.91
2023-05-12T16:16:12.510Z,30.90
2023-05-12T16:19:16.277Z,31.16
2023-05-12T16:22:19.055Z,31.42
2023-05-12T16:25:21.989Z,31.64
2023-05-12T16:28:25.287Z,31.89
2023-05-12T16:31:28.346Z,31.07
2023-05-12T16:34:31.414Z,31.18
2023-05-12T16:37:34.421Z,31.34
2023-05-12T16:40:37.201Z,31.74
2023-05-12T16:43:39.927Z,31.98
2023-05-12T16:46:43.269Z,32.23
2023-05-12T16:49:46.534Z,32.07
2023-05-12T16:52:49.330Z,31.91
2023-05-12T17:09:28.845Z,31.58
2023-05-12T17:12:32.207Z,31.10
2023-05-12T17:15:37.489Z,31.20
2023-05-12T17:21:46.252Z,31.15
2023-05-12T17:24:49.614Z,30.89
2023-05-12T17:28:27.816Z,31.10
2023-05-12T17:32:50.295Z,31.51
2023-05-12T17:36:56.082Z,31.94
2023-05-12T17:39:59.397Z,31.80
2023-05-12T17:43:02.395Z,32.20
2023-05-12T17:46:05.507Z,32.44
2023-05-12T17:49:08.392Z,32.73
2023-05-12T17:52:11.260Z,32.82
2023-05-12T17:55:14.020Z,32.96
2023-05-12T17:58:16.760Z,33.18
2023-05-12T18:01:19.501Z,33.33
2023-05-12T18:04:23.261Z,33.52
2023-05-12T18:07:26.567Z,34.20
2023-05-12T18:10:29.615Z,34.71
2023-05-12T18:13:32.471Z,35.11
2023-05-12T18:16:35.269Z,35.29
2023-05-12T18:19:38.061Z,35.42
2023-05-12T18:22:41.122Z,35.80
2023-05-12T18:25:43.950Z,36.07
2023-05-12T18:28:46.909Z,36.20
2023-05-12T18:31:49.758Z,36.37
2023-05-12T18:34:52.567Z,36.60
2023-05-12T18:37:55.528Z,36.73
2023-05-12T18:40:58.298Z,36.66
2023-05-12T18:44:01.110Z,37.32
2023-05-12T18:47:04.106Z,37.97
2023-05-12T18:50:07.974Z,37.91
2023-05-12T18:53:11.036Z,38.02
2023-05-12T18:56:14.345Z,38.30
2023-05-12T18:59:17.613Z,38.42
2023-05-12T19:02:20.832Z,38.54
2023-05-12T19:05:24.064Z,38.85
2023-05-12T19:08:27.036Z,39.32
2023-05-12T19:11:29.775Z,39.87
2023-05-12T19:14:32.647Z,40.16
2023-05-12T19:17:37.546Z,40.27
2023-05-12T19:20:41.161Z,40.58
2023-05-12T19:23:43.967Z,40.91
2023-05-12T19:26:46.712Z,40.90
2023-05-12T19:29:49.529Z,41.20
2023-05-12T19:32:52.434Z,41.27
2023-05-12T19:35:56.343Z,41.57
2023-05-12T19:39:00.416Z,41.83
2023-05-12T19:42:03.347Z,42.13
2023-05-12T19:45:06.991Z,42.20
2023-05-12T19:48:10.300Z,42.25
2023-05-12T19:51:13.404Z,42.33
2023-05-12T19:54:16.431Z,42.31
2023-05-12T19:57:19.934Z,42.50
2023-05-12T20:00:29.918Z,42.62
2023-05-12T20:03:32.835Z,42.90
2023-05-12T20:06:35.772Z,43.21
2023-05-12T20:09:38.523Z,43.37
2023-05-12T20:12:41.377Z,43.28
2023-05-12T20:15:44.478Z,43.37
2023-05-12T20:18:47.324Z,43.69
2023-05-12T20:21:50.166Z,43.72
2023-05-12T20:24:52.939Z,44.06
2023-05-12T20:27:55.732Z,44.52
2023-05-12T20:30:58.461Z,44.68
2023-05-12T20:34:01.426Z,44.72
2023-05-12T20:37:04.278Z,44.49
2023-05-12T20:40:08.095Z,44.91
2023-05-12T20:43:12.968Z,44.73
2023-05-12T20:46:15.870Z,44.76
2023-05-12T20:49:18.795Z,45.26
2023-05-12T20:52:23.410Z,45.24
2023-05-12T20:55:26.655Z,45.56
2023-05-12T20:58:29.388Z,45.68
2023-05-12T21:01:32.118Z,45.44
2023-05-12T21:04:34.921Z,45.45
2023-05-12T21:07:37.859Z,45.53
2023-05-12T21:10:41.133Z,45.77
2023-05-12T21:13:45.450Z,45.76
2023-05-12T21:16:48.248Z,45.67
2023-05-12T21:19:50.998Z,45.76
2023-05-12T21:22:55.103Z,45.73
2023-05-12T21:25:58.073Z,45.69
2023-05-12T21:29:03.365Z,45.98
2023-05-12T21:32:06.815Z,46.33
2023-05-12T21:35:09.887Z,46.26
2023-05-12T21:38:13.098Z,46.27
2023-05-12T21:41:15.885Z,46.29
2023-05-12T21:44:18.624Z,46.60
2023-05-12T21:47:21.643Z,46.56
2023-05-12T21:50:24.469Z,46.85
2023-05-12T21:53:28.317Z,47.38
2023-05-12T21:56:31.184Z,47.73
2023-05-12T21:59:33.954Z,47.78
2023-05-12T22:02:36.734Z,47.70
2023-05-12T22:05:40.306Z,48.20
2023-05-12T22:08:43.453Z,48.35
2023-05-12T22:11:54.727Z,48.91
2023-05-12T22:14:57.489Z,49.04
2023-05-12T22:18:00.817Z,49.29
2023-05-12T22:21:03.799Z,49.66
2023-05-12T22:24:07.115Z,49.79
2023-05-12T22:27:09.850Z,50.00
2023-05-12T22:30:13.205Z,50.19
2023-05-12T22:33:15.974Z,50.05
2023-05-12T22:36:18.784Z,50.16
2023-05-12T22:39:21.497Z,50.22
2023-05-12T22:42:24.355Z,50.52
2023-05-12T22:45:27.253Z,50.74
2023-05-12T22:48:33.826Z,50.79
2023-05-12T22:51:38.790Z,51.04
2023-05-12T22:54:41.536Z,50.73
2023-05-12T22:57:46.115Z,50.80
2023-05-12T23:00:49.078Z,50.93
2023-05-12T23:03:51.859Z,50.79
2023-05-12T23:06:54.868Z,51.18
2023-05-12T23:09:57.713Z,51.56
2023-05-12T23:13:01.039Z,51.44
2023-05-12T23:16:04.251Z,51.14
2023-05-12T23:19:07.064Z,51.38
2023-05-12T23:22:10.048Z,51.26
2023-05-12T23:25:13.045Z,51.22
2023-05-12T23:28:15.992Z,51.83
2023-05-12T23:31:18.745Z,51.85
2023-05-12T23:34:21.555Z,51.55
2023-05-12T23:37:27.474Z,51.46
2023-05-12T23:40:30.929Z,51.76
2023-05-12T23:43:33.763Z,51.70
2023-05-12T23:46:36.793Z,51.50
2023-05-12T23:49:39.761Z,51.55
2023-05-12T23:52:42.524Z,51.90
2023-05-12T23:55:45.311Z,51.85
2023-05-12T23:58:49.078Z,52.01
